createdAt,value
2023-02-02T04:46:46.177Z,615.07
2023-02-02T04:49:12.914Z,624.55
2023-02-02T04:51:40.687Z,630.70
2023-02-02T04:54:07.749Z,611.53
2023-02-02T04:56:35.090Z,620.75
2023-02-02T04:59:01.837Z,609.97
2023-02-02T05:01:30.707Z,613.80
2023-02-02T05:03:57.652Z,620.38
2023-02-02T05:06:24.678Z,619.93
2023-02-02T05:08:51.801Z,621.70
2023-02-02T05:11:22.069Z,624.63
2023-02-02T05:13:50.587Z,621.75
2023-02-02T05:16:17.550Z,626.42
2023-02-02T05:18:49.779Z,612.50
2023-02-02T05:21:16.489Z,617.03
2023-02-02T05:23:43.140Z,625.03
2023-02-02T05:26:15.984Z,622.15
2023-02-02T05:28:42.909Z,618.80
2023-02-02T05:31:10.295Z,613.50
2023-02-02T05:33:37.381Z,626.03
2023-02-02T05:36:04.693Z,618.85
2023-02-02T05:38:31.714Z,619.17
2023-02-02T05:40:58.557Z,619.92
2023-02-02T05:43:27.293Z,618.20
2023-02-02T05:45:54.040Z,622.58
2023-02-02T05:48:20.719Z,614.60
2023-02-02T05:51:00.967Z,620.40
2023-02-02T05:53:29.914Z,619.03
2023-02-02T05:55:56.695Z,615.28
2023-02-02T05:58:23.450Z,622.45
2023-02-02T06:00:50.167Z,618.90
2023-02-02T06:03:17.093Z,629.83
2023-02-02T06:05:43.904Z,621.58
2023-02-02T06:08:10.801Z,619.72
2023-02-02T06:10:41.771Z,622.20
2023-02-02T06:13:09.274Z,622.40
2023-02-02T06:15:36.669Z,628.70
2023-02-02T06:18:06.035Z,643.47
2023-02-02T06:20:32.917Z,655.10
2023-02-02T06:22:59.768Z,644.07
2023-02-02T06:25:26.784Z,647.67
2023-02-02T06:27:57.864Z,651.28
2023-02-02T06:30:24.662Z,644.22
2023-02-02T06:32:51.578Z,649.83
2023-02-02T06:35:18.394Z,640.25
2023-02-02T06:37:45.079Z,647.97
2023-02-02T06:40:13.695Z,639.50
2023-02-02T06:42:40.890Z,641.47
2023-02-02T06:45:08.218Z,645.95
2023-02-02T06:47:34.992Z,641.38
2023-02-02T06:50:01.732Z,652.30
2023-02-02T06:52:28.543Z,650.78
2023-02-02T06:54:55.238Z,648.67
2023-02-02T06:57:21.890Z,650.63
2023-02-02T06:59:48.580Z,640.05
2023-02-02T07:02:15.406Z,650.03
2023-02-02T07:04:42.227Z,649.20
2023-02-02T07:07:08.960Z,656.22
2023-02-02T07:09:35.930Z,649.97
2023-02-02T07:12:02.581Z,657.42
2023-02-02T07:14:29.214Z,651.97
2023-02-02T07:16:55.941Z,645.38
2023-02-02T07:19:22.637Z,652.65
2023-02-02T07:21:49.439Z,657.33
2023-02-02T07:24:16.619Z,630.85
2023-02-02T07:26:44.571Z,631.03
2023-02-02T07:29:14.839Z,629.40
2023-02-02T07:31:41.754Z,647.25
2023-02-02T07:34:08.464Z,655.15
2023-02-02T07:36:35.690Z,643.25
2023-02-02T07:39:04.783Z,658.50
2023-02-02T07:41:32.166Z,651.80
2023-02-02T07:43:58.897Z,651.00
2023-02-02T07:46:25.644Z,645.90
2023-02-02T07:48:56.971Z,644.40
2023-02-02T07:51:25.050Z,645.85
2023-02-02T07:53:53.900Z,651.00
2023-02-02T07:56:23.663Z,656.88
2023-02-02T07:58:53.492Z,653.70
2023-02-02T08:01:22.844Z,651.40
2023-02-02T08:03:50.525Z,652.08
2023-02-02T08:06:21.796Z,650.72
2023-02-02T08:08:49.306Z,644.38
2023-02-02T08:11:18.114Z,656.45
2023-02-02T08:13:48.231Z,655.28
2023-02-02T08:16:14.983Z,630.67
2023-02-02T08:18:42.357Z,629.35
2023-02-02T08:21:09.623Z,642.72
2023-02-02T08:23:37.751Z,657.13
2023-02-02T08:26:10.275Z,655.50
2023-02-02T08:28:37.559Z,652.38
2023-02-02T08:31:15.830Z,657.15
2023-02-02T08:33:42.697Z,657.70
2023-02-02T08:36:14.001Z,661.95
2023-02-02T08:38:41.271Z,660.78
2023-02-02T08:41:10.021Z,663.03
2023-02-02T08:43:37.021Z,661.80
2023-02-02T08:46:05.704Z,661.65
2023-02-02T08:48:33.527Z,664.88
2023-02-02T08:51:00.474Z,669.17
2023-02-02T08:53:28.338Z,660.75
2023-02-02T08:56:04.173Z,663.28
2023-02-02T08:58:31.552Z,658.15
2023-02-02T09:01:13.314Z,662.25
2023-02-02T09:03:40.447Z,678.45
2023-02-02T09:06:08.956Z,662.38
2023-02-02T09:08:36.044Z,663.80
2023-02-02T09:11:17.443Z,664.13
2023-02-02T09:13:45.979Z,676.88
2023-02-02T09:16:14.895Z,676.70
2023-02-02T09:18:42.778Z,671.75
2023-02-02T09:21:12.273Z,675.45
2023-02-02T09:23:40.709Z,678.28
2023-02-02T09:26:15.263Z,679.80
2023-02-02T09:28:44.126Z,667.50
2023-02-02T09:31:11.362Z,672.53
2023-02-02T09:33:38.515Z,662.58
2023-02-02T09:36:24.964Z,664.55
2023-02-02T09:38:52.191Z,667.28
2023-02-02T09:41:37.265Z,676.80
2023-02-02T09:44:09.952Z,690.20
2023-02-02T09:46:36.544Z,697.47
2023-02-02T09:49:12.469Z,671.28
2023-02-02T09:51:49.315Z,679.83
2023-02-02T09:54:37.206Z,667.47
2023-02-02T09:57:10.495Z,689.10
2023-02-02T09:59:41.771Z,678.47
2023-02-02T10:02:39.853Z,687.92
2023-02-02T10:05:35.394Z,683.30
2023-02-02T10:08:05.700Z,683.22
2023-02-02T10:10:42.907Z,681.70
2023-02-02T10:13:17.797Z,686.42
2023-02-02T10:16:01.804Z,687.88
2023-02-02T10:18:50.153Z,688.08
2023-02-02T10:21:54.169Z,689.03
2023-02-02T10:24:24.952Z,688.85
2023-02-02T10:26:58.124Z,680.45
2023-02-02T10:29:48.012Z,682.03
2023-02-02T10:32:25.038Z,677.30
2023-02-02T10:35:19.167Z,704.05
2023-02-02T10:38:08.105Z,668.70
2023-02-02T10:40:57.733Z,680.22
2023-02-02T10:43:48.680Z,676.88
2023-02-02T10:46:23.628Z,682.90
2023-02-02T10:48:52.840Z,681.92
2023-02-02T10:51:28.886Z,692.15
2023-02-02T10:53:59.841Z,701.38
2023-02-02T10:56:37.557Z,691.97
2023-02-02T10:59:27.272Z,702.83
2023-02-02T11:01:54.032Z,696.60
2023-02-02T11:04:40.239Z,694.05
2023-02-02T11:07:07.214Z,692.53
2023-02-02T11:09:39.465Z,704.67
2023-02-02T11:12:21.319Z,707.00
2023-02-02T11:15:05.211Z,703.45
2023-02-02T11:17:33.109Z,702.78
2023-02-02T11:19:59.857Z,706.10
2023-02-02T11:22:37.138Z,700.92
2023-02-02T11:25:23.011Z,696.55
2023-02-02T11:27:49.894Z,697.45
2023-02-02T11:30:28.568Z,695.30
2023-02-02T11:32:56.383Z,697.95
2023-02-02T11:35:29.665Z,680.10
2023-02-02T11:37:59.297Z,693.20
2023-02-02T11:40:28.296Z,684.58
2023-02-02T11:43:01.160Z,693.50
2023-02-02T11:45:27.876Z,698.58
2023-02-02T11:48:00.161Z,699.27
2023-02-02T11:50:28.112Z,691.88
2023-02-02T11:52:55.459Z,698.10
2023-02-02T11:55:30.227Z,698.30
2023-02-02T11:58:19.817Z,695.85
2023-02-02T12:00:48.639Z,693.30
2023-02-02T12:03:32.293Z,689.72
2023-02-02T12:05:59.676Z,690.75
2023-02-02T12:08:26.419Z,702.03
2023-02-02T12:11:03.947Z,702.60
2023-02-02T12:13:55.381Z,695.08
2023-02-02T12:16:43.329Z,694.05
2023-02-02T12:19:38.196Z,692.63
2023-02-02T12:22:11.483Z,686.37
2023-02-02T12:24:54.607Z,693.47
2023-02-02T12:27:46.035Z,686.85
2023-02-02T12:30:15.797Z,684.50
2023-02-02T12:32:45.650Z,686.08
2023-02-02T12:35:30.923Z,700.85
2023-02-02T12:38:12.068Z,697.67
2023-02-02T12:40:48.587Z,689.80
2023-02-02T12:43:29.278Z,689.17
2023-02-02T12:45:55.942Z,698.53
2023-02-02T12:48:28.948Z,690.60
2023-02-02T12:51:16.749Z,694.38
2023-02-02T12:54:32.982Z,699.35
2023-02-02T12:57:01.163Z,692.80
2023-02-02T13:00:05.620Z,699.20
2023-02-02T13:02:38.240Z,693.78
2023-02-02T13:05:12.917Z,707.00
2023-02-02T13:07:57.792Z,696.35
2023-02-02T13:10:34.047Z,695.85
2023-02-02T13:13:12.398Z,703.55
2023-02-02T13:15:42.858Z,694.58
2023-02-02T13:18:21.917Z,694.80
2023-02-02T13:20:54.425Z,691.90
2023-02-02T13:23:47.235Z,684.85
2023-02-02T13:26:20.665Z,683.25
2023-02-02T13:29:03.012Z,688.60
2023-02-02T13:31:40.351Z,689.92
2023-02-02T13:34:28.722Z,693.08
2023-02-02T13:37:17.856Z,690.92
2023-02-02T13:40:01.700Z,691.17
2023-02-02T13:42:45.911Z,690.03
2023-02-02T13:45:51.560Z,698.08
2023-02-02T13:48:42.149Z,694.95
2023-02-02T13:51:11.776Z,689.55
2023-02-02T13:54:11.862Z,688.90
2023-02-02T13:56:50.763Z,695.42
2023-02-02T13:59:45.694Z,693.83
2023-02-02T14:02:37.912Z,693.22
2023-02-02T14:05:06.471Z,701.83
2023-02-02T14:07:43.644Z,691.33
2023-02-02T14:10:28.876Z,693.75
2023-02-02T14:12:56.225Z,702.55
2023-02-02T14:15:41.073Z,692.20
2023-02-02T14:18:07.918Z,699.50
2023-02-02T14:20:45.920Z,707.95
2023-02-02T14:23:51.302Z,701.00
2023-02-02T14:26:42.860Z,703.35
2023-02-02T14:29:46.591Z,707.13
2023-02-02T14:32:27.728Z,704.50
2023-02-02T14:34:56.904Z,698.58
2023-02-02T14:37:26.603Z,700.45
2023-02-02T14:40:24.037Z,703.75
2023-02-02T14:43:23.481Z,706.55
2023-02-02T14:46:12.905Z,703.90
2023-02-02T14:49:02.914Z,698.80
2023-02-02T14:51:32.878Z,703.15
2023-02-02T14:54:06.351Z,689.40
2023-02-02T14:56:41.397Z,685.45
2023-02-02T14:59:24.626Z,692.90
2023-02-02T15:02:17.471Z,701.85
2023-02-02T15:04:47.812Z,690.33
2023-02-02T15:07:23.578Z,695.67
2023-02-02T15:09:52.133Z,689.17
2023-02-02T15:12:44.576Z,696.47
2023-02-02T15:15:23.605Z,696.40
2023-02-02T15:18:15.278Z,685.97
2023-02-02T15:20:48.695Z,681.38
2023-02-02T15:23:24.287Z,692.63
2023-02-02T15:26:03.334Z,691.33
2023-02-02T15:28:48.748Z,696.13
2023-02-02T15:31:57.453Z,692.28
2023-02-02T15:34:38.961Z,683.83
2023-02-02T15:37:08.514Z,680.90
2023-02-02T15:39:42.049Z,681.72
2023-02-02T15:42:41.692Z,691.65
2023-02-02T15:45:28.391Z,683.20
2023-02-02T15:47:57.469Z,693.57
2023-02-02T15:50:24.495Z,683.20
2023-02-02T15:52:52.911Z,693.55
2023-02-02T15:55:35.311Z,693.88
2023-02-02T15:58:02.995Z,694.30
2023-02-02T16:00:32.411Z,691.10
2023-02-02T16:03:08.009Z,695.35
2023-02-02T16:05:34.579Z,691.22
2023-02-02T16:08:06.508Z,692.05
2023-02-02T16:10:35.245Z,698.33
2023-02-02T16:13:03.073Z,689.78
2023-02-02T16:15:31.879Z,689.93
2023-02-02T16:18:07.823Z,693.65
2023-02-02T16:20:36.388Z,695.80
2023-02-02T16:23:06.043Z,698.00
2023-02-02T16:25:44.194Z,689.20
2023-02-02T16:28:15.136Z,698.13
2023-02-02T16:30:43.158Z,694.38
2023-02-02T16:33:29.576Z,693.45
2023-02-02T16:35:56.706Z,689.00
2023-02-02T16:38:31.336Z,703.13
2023-02-02T16:41:10.464Z,701.95
2023-02-02T16:43:38.991Z,701.42
2023-02-02T16:46:15.184Z,701.87
2023-02-02T16:48:56.358Z,698.78
2023-02-02T16:51:26.760Z,700.42
2023-02-02T16:54:20.246Z,705.55
2023-02-02T16:57:01.117Z,696.30
2023-02-02T16:59:37.612Z,701.38
2023-02-02T17:02:21.055Z,691.63
2023-02-02T17:04:52.154Z,697.03
2023-02-02T17:07:21.229Z,704.73
2023-02-02T17:09:48.751Z,701.15
2023-02-02T17:12:35.175Z,693.35
2023-02-02T17:15:33.384Z,699.45
2023-02-02T17:18:01.889Z,697.50
2023-02-02T17:20:29.060Z,705.33
2023-02-02T17:23:03.594Z,708.88
2023-02-02T17:25:32.835Z,704.45
2023-02-02T17:28:00.811Z,715.85
2023-02-02T17:30:28.835Z,715.27
2023-02-02T17:32:55.752Z,702.17
2023-02-02T17:35:25.577Z,708.53
2023-02-02T17:37:53.564Z,712.97
2023-02-02T17:40:22.449Z,714.40
2023-02-02T17:42:53.531Z,724.13
2023-02-02T17:45:23.879Z,718.23
2023-02-02T17:47:51.286Z,718.97
2023-02-02T17:50:18.512Z,708.90
2023-02-02T17:52:46.077Z,707.35
2023-02-02T17:55:25.946Z,709.45
2023-02-02T17:57:53.959Z,703.97
2023-02-02T18:00:24.034Z,697.97
2023-02-02T18:02:56.759Z,704.10
2023-02-02T18:05:23.949Z,699.27
2023-02-02T18:07:50.774Z,706.72
2023-02-02T18:10:19.219Z,708.73
2023-02-02T18:12:46.022Z,701.53
2023-02-02T18:15:14.711Z,703.05
2023-02-02T18:17:42.210Z,688.92
2023-02-02T18:20:11.851Z,696.65
2023-02-02T18:22:38.574Z,693.42
2023-02-02T18:25:06.043Z,688.27
2023-02-02T18:27:32.708Z,696.05
2023-02-02T18:29:59.440Z,701.92
2023-02-02T18:32:26.314Z,699.63
2023-02-02T18:34:55.810Z,694.80
2023-02-02T18:37:24.096Z,699.53
2023-02-02T18:39:51.814Z,691.38
2023-02-02T18:42:18.499Z,701.92
2023-02-02T18:44:45.218Z,697.10
2023-02-02T18:47:11.895Z,698.38
2023-02-02T18:49:38.538Z,697.10
2023-02-02T18:52:05.365Z,701.97
2023-02-02T18:54:33.824Z,706.08
2023-02-02T18:57:00.491Z,703.65
2023-02-02T18:59:28.474Z,705.28
2023-02-02T19:01:55.542Z,709.53
2023-02-02T19:04:22.338Z,706.80
2023-02-02T19:07:07.532Z,704.88
2023-02-02T19:09:34.786Z,706.63
2023-02-02T19:12:02.060Z,704.15
2023-02-02T19:14:33.176Z,699.50
2023-02-02T19:17:09.566Z,700.75
2023-02-02T19:19:36.324Z,711.03
2023-02-02T19:22:24.053Z,695.67
2023-02-02T19:24:51.160Z,698.57
2023-02-02T19:27:23.620Z,696.67
2023-02-02T19:29:54.090Z,687.53
2023-02-02T19:32:24.928Z,699.47
2023-02-02T19:34:58.579Z,704.65
2023-02-02T19:37:27.593Z,701.70
2023-02-02T19:40:02.135Z,705.88
2023-02-02T19:42:29.111Z,704.60
2023-02-02T19:44:58.396Z,710.60
2023-02-02T19:47:31.948Z,704.88
2023-02-02T19:50:12.033Z,704.15
2023-02-02T19:52:39.235Z,700.78
2023-02-02T19:55:20.916Z,695.50
2023-02-02T19:57:47.706Z,697.70
2023-02-02T20:00:23.004Z,703.72
2023-02-02T20:03:00.157Z,692.90
2023-02-02T20:05:35.600Z,702.88
2023-02-02T20:08:12.777Z,706.38
2023-02-02T20:10:42.514Z,710.92
2023-02-02T20:13:34.503Z,699.33
2023-02-02T20:16:04.359Z,703.55
2023-02-02T20:18:41.807Z,697.35
2023-02-02T20:21:32.134Z,693.28
2023-02-02T20:23:58.967Z,706.78
2023-02-02T20:26:36.234Z,691.03
2023-02-02T20:29:17.312Z,700.47
2023-02-02T20:31:45.091Z,698.10
2023-02-02T20:34:24.237Z,703.70
2023-02-02T20:36:52.591Z,698.63
2023-02-02T20:39:26.273Z,698.23
2023-02-02T20:41:56.408Z,691.15
2023-02-02T20:44:25.004Z,696.97
2023-02-02T20:46:51.863Z,685.75
2023-02-02T20:49:20.672Z,694.65
2023-02-02T20:51:47.579Z,695.45
2023-02-02T20:54:14.355Z,698.42
2023-02-02T20:56:41.179Z,699.22
2023-02-02T20:59:07.991Z,705.33
2023-02-02T21:01:34.780Z,710.63
2023-02-02T21:04:05.305Z,708.80
2023-02-02T21:06:32.043Z,706.08
2023-02-02T21:08:58.764Z,698.83
2023-02-02T21:11:25.561Z,702.10
2023-02-02T21:13:55.129Z,701.17
2023-02-02T21:16:22.643Z,697.05
2023-02-02T21:18:49.592Z,693.60
2023-02-02T21:21:18.756Z,694.22
2023-02-02T21:23:48.969Z,690.15
2023-02-02T21:28:44.827Z,690.13
2023-02-02T21:31:13.740Z,691.13
2023-02-02T21:33:45.042Z,688.53
2023-02-02T21:36:32.031Z,686.63
2023-02-02T21:39:24.956Z,685.33
2023-02-02T21:42:16.074Z,696.50
2023-02-02T21:44:54.144Z,690.28
2023-02-02T21:47:46.857Z,691.80
2023-02-02T21:50:25.890Z,687.50
2023-02-02T21:53:03.944Z,681.80
2023-02-02T21:55:36.806Z,684.50
2023-02-02T21:58:34.805Z,683.35
2023-02-02T22:01:16.907Z,688.47
2023-02-02T22:03:46.673Z,684.70
2023-02-02T22:06:27.717Z,674.05
2023-02-02T22:09:24.850Z,675.03
2023-02-02T22:11:54.255Z,680.47
2023-02-02T22:14:37.762Z,679.13
2023-02-02T22:17:37.259Z,675.55
2023-02-02T22:20:31.644Z,684.17
2023-02-02T22:22:58.554Z,677.25
2023-02-02T22:25:36.666Z,691.45
2023-02-02T22:28:26.300Z,689.80
2023-02-02T22:30:54.977Z,683.92
2023-02-02T22:33:22.967Z,681.75
2023-02-02T22:35:49.786Z,679.87
2023-02-02T22:38:21.816Z,688.25
2023-02-02T22:40:50.272Z,667.07
2023-02-02T22:43:18.512Z,662.10
2023-02-02T22:45:46.128Z,673.65
2023-02-02T22:48:14.361Z,677.67
2023-02-02T22:50:41.328Z,676.45
2023-02-02T22:53:08.522Z,665.83
2023-02-02T22:55:35.379Z,675.42
2023-02-02T22:58:02.038Z,674.53
2023-02-02T23:00:32.253Z,663.80
2023-02-02T23:02:59.570Z,662.80
2023-02-02T23:05:27.247Z,678.05
2023-02-02T23:07:54.636Z,677.95
2023-02-02T23:10:25.000Z,680.70
2023-02-02T23:12:54.924Z,684.08
2023-02-02T23:15:21.925Z,682.78
2023-02-02T23:17:48.753Z,693.28
2023-02-02T23:20:15.950Z,687.57
2023-02-02T23:22:42.773Z,692.78
2023-02-02T23:25:10.519Z,694.37
2023-02-02T23:27:37.548Z,696.45
2023-02-02T23:30:05.821Z,695.30
2023-02-02T23:32:32.503Z,685.92
2023-02-02T23:34:59.629Z,681.03
2023-02-02T23:37:26.505Z,690.17
2023-02-02T23:39:53.194Z,684.60
2023-02-02T23:42:19.958Z,692.75
2023-02-02T23:44:46.820Z,692.13
2023-02-02T23:47:13.533Z,683.08
2023-02-02T23:49:40.443Z,695.43
2023-02-02T23:52:07.420Z,686.10
2023-02-02T23:54:34.552Z,690.50
2023-02-02T23:57:01.953Z,682.72
2023-02-02T23:59:28.737Z,702.60
